Time;durP1;ratioP1;P1;durP2;ratioP2;P2;SDS_P1;SDS_P2;PMS_P1;PMS_P2;Temp;Humidity;BMP_temperature;BMP_pressure;BME280_temperature;BME280_humidity;BME280_pressure;Samples;Min_cycle;Max_cycle;Signal;HPM_P1;HPM_P2
2022/02/27 00:01:22;;;;;;;15.07;4.80;;;-1.30;99.90;;;;;;6212865;23;20031;-78
2022/02/27 00:03:48;;;;;;;;;;;-1.40;99.90;;;;;;6212863;23;20020;-78
2022/02/27 00:06:14;;;;;;;4.72;3.75;;;-1.40;99.90;;;;;;6212601;23;19982;-78
2022/02/27 00:08:40;;;;;;;10.63;4.53;;;-1.40;99.90;;;;;;6213908;23;20060;-78
2022/02/27 00:11:05;;;;;;;5.93;3.90;;;-1.40;99.90;;;;;;6213195;23;20744;-79
2022/02/27 00:13:31;;;;;;;;;;;-1.40;99.90;;;;;;6212958;23;20016;-79
2022/02/27 00:15:56;;;;;;;5.45;3.92;;;-1.40;99.90;;;;;;6212671;23;19921;-78
2022/02/27 00:18:22;;;;;;;3.65;3.35;;;-1.50;99.90;;;;;;6211924;23;20621;-78
2022/02/27 00:20:48;;;;;;;10.50;3.92;;;-0.60;99.90;;;;;;6213429;23;20020;-77
2022/02/27 00:23:14;;;;;;;;;;;-1.60;99.90;;;;;;6188349;23;20452;-78
2022/02/27 00:25:40;;;;;;;6.88;3.28;;;-1.50;99.90;;;;;;6188085;23;19921;-78
2022/02/27 00:28:07;;;;;;;5.00;3.65;;;-1.60;99.90;;;;;;6212517;23;20764;-78
2022/02/27 00:30:34;;;;;;;5.07;4.05;;;-1.60;99.90;;;;;;6213153;23;20103;-78
2022/02/27 00:33:00;;;;;;;6.53;4.00;;;-1.60;99.90;;;;;;6211908;23;20016;-78
2022/02/27 00:35:25;;;;;;;8.20;3.88;;;-1.60;99.90;;;;;;6189523;23;20016;-79
2022/02/27 00:37:51;;;;;;;;;;;-1.60;99.90;;;;;;6215176;23;20020;-79
2022/02/27 00:40:17;;;;;;;7.60;4.15;;;-1.60;99.90;;;;;;6214605;23;19922;-79
2022/02/27 00:42:42;;;;;;;;;;;-1.70;99.90;;;;;;6215285;23;20060;-78
2022/02/27 00:45:08;;;;;;;4.35;3.72;;;-1.60;99.90;;;;;;6189196;23;19949;-78
2022/02/27 00:47:34;;;;;;;4.80;3.05;;;-1.70;99.90;;;;;;6214718;23;20024;-77
2022/02/27 00:50:00;;;;;;;9.13;3.67;;;-1.70;99.90;;;;;;6213156;23;20028;-77
2022/02/27 00:52:26;;;;;;;4.10;3.33;;;-1.70;99.90;;;;;;6189876;23;20020;-78
2022/02/27 00:54:52;;;;;;;;;;;-1.60;99.90;;;;;;6190628;23;20020;-77
2022/02/27 00:57:23;;;;;;;18.90;3.75;;;-1.70;99.90;;;;;;6190265;23;19918;-77
2022/02/27 00:59:49;;;;;;;7.97;3.65;;;-1.70;99.90;;;;;;6217270;23;20016;-77
2022/02/27 01:02:15;;;;;;;8.63;4.10;;;-1.70;99.90;;;;;;6217071;23;20019;-77
2022/02/27 01:04:41;;;;;;;;;;;-1.70;99.90;;;;;;6216636;23;20020;-76
2022/02/27 01:07:13;;;;;;;3.75;3.40;;;-1.70;99.90;;;;;;6218557;23;20075;-77
2022/02/27 01:09:39;;;;;;;5.07;3.85;;;-1.70;99.90;;;;;;6217173;23;20052;-78
2022/02/27 01:12:05;;;;;;;;;;;-1.70;99.90;;;;;;6192338;23;20032;-78
2022/02/27 01:14:31;;;;;;;3.83;2.97;;;-1.70;99.90;;;;;;6191873;23;19965;-78
2022/02/27 01:17:01;;;;;;;3.47;2.92;;;-1.70;99.90;;;;;;6216398;23;20276;-78
2022/02/27 01:19:27;;;;;;;11.57;3.47;;;-1.80;99.90;;;;;;6217003;23;20527;-77
2022/02/27 01:21:52;;;;;;;;;;;-1.80;99.90;;;;;;6193059;23;20020;-78
2022/02/27 01:24:18;;;;;;;9.02;3.90;;;-1.90;99.90;;;;;;6216987;23;19942;-78
2022/02/27 01:26:44;;;;;;;3.60;3.30;;;-1.90;99.90;;;;;;6244476;23;20474;-78
2022/02/27 01:29:09;;;;;;;13.45;3.63;;;-1.90;99.90;;;;;;6215569;23;20016;-78
2022/02/27 01:31:35;;;;;;;;;;;-1.90;99.90;;;;;;6217738;23;20052;-78
2022/02/27 01:34:01;;;;;;;6.18;3.92;;;-1.90;99.90;;;;;;6215438;23;19921;-78
2022/02/27 01:36:26;;;;;;;;;;;-1.90;99.90;;;;;;6217570;23;20031;-78
2022/02/27 01:38:52;;;;;;;8.23;4.55;;;-1.90;99.90;;;;;;6216649;23;19915;-78
2022/02/27 01:41:18;;;;;;;;;;;-1.90;99.90;;;;;;6216660;23;20498;-77
2022/02/27 01:43:44;;;;;;;10.93;3.85;;;-1.90;99.90;;;;;;6216587;23;19921;-77
2022/02/27 01:46:10;;;;;;;3.88;3.05;;;-1.90;99.90;;;;;;6216157;23;20524;-78
2022/02/27 01:48:39;;;;;;;7.55;3.65;;;-2.00;99.90;;;;;;6165628;23;20104;-79
2022/02/27 01:51:05;;;;;;;6.72;4.00;;;-2.00;99.90;;;;;;6191074;23;20020;-78
2022/02/27 01:53:33;;;;;;;10.00;3.75;;;-2.00;99.90;;;;;;6216712;23;20065;-79
2022/02/27 01:55:59;;;;;;;7.18;3.45;;;-2.00;99.90;;;;;;6216484;23;20016;-78
2022/02/27 01:58:29;;;;;;;7.57;3.80;;;-2.00;99.90;;;;;;6192038;23;20020;-79
2022/02/27 02:00:57;;;;;;;3.47;3.17;;;-2.00;99.90;;;;;;6191737;23;20481;-77
2022/02/27 02:03:24;;;;;;;6.45;4.10;;;-2.10;99.90;;;;;;6190086;23;20027;-78
2022/02/27 02:05:50;;;;;;;14.13;3.55;;;-2.10;99.90;;;;;;6216783;23;20343;-77
2022/02/27 02:08:16;;;;;;;11.98;3.88;;;-2.10;99.90;;;;;;6191338;23;20073;-77
2022/02/27 02:10:42;;;;;;;7.03;4.70;;;-2.10;99.90;;;;;;6216538;23;20117;-77
2022/02/27 02:13:08;;;;;;;;;;;-2.10;99.90;;;;;;6191471;23;20023;-77
2022/02/27 02:15:34;;;;;;;5.95;3.80;;;-2.10;99.90;;;;;;6216833;23;19916;-77
2022/02/27 02:17:59;;;;;;;15.07;4.78;;;-2.10;99.90;;;;;;6215160;23;20016;-78
2022/02/27 02:20:26;;;;;;;8.57;4.50;;;-2.20;99.90;;;;;;6191859;23;20408;-78
2022/02/27 02:22:51;;;;;;;6.40;4.38;;;-2.20;99.90;;;;;;6216636;23;20008;-78
2022/02/27 02:25:17;;;;;;;6.00;4.20;;;-2.20;99.90;;;;;;6215896;23;20027;-78
2022/02/27 02:27:44;;;;;;;5.95;3.90;;;-2.20;99.90;;;;;;6216447;23;20027;-77
2022/02/27 02:30:11;;;;;;;8.73;3.65;;;-2.20;99.90;;;;;;6215883;23;20463;-78
2022/02/27 02:32:57;;;;;;;10.10;4.75;;;-2.20;99.90;;;;;;6216560;23;20020;-78
2022/02/27 02:35:25;;;;;;;12.20;4.43;;;-2.20;99.90;;;;;;6215938;23;20077;-78
2022/02/27 02:37:52;;;;;;;6.93;4.80;;;-2.20;99.90;;;;;;6166481;23;20061;-78
2022/02/27 02:40:17;;;;;;;6.28;4.28;;;-2.20;99.90;;;;;;6216159;23;20020;-78
2022/02/27 02:42:45;;;;;;;7.07;4.18;;;-2.30;99.90;;;;;;6216550;23;20058;-77
2022/02/27 02:45:12;;;;;;;4.40;3.97;;;-2.30;99.90;;;;;;6215982;23;20036;-78
2022/02/27 02:47:40;;;;;;;7.90;3.85;;;-2.30;99.90;;;;;;6218515;23;20008;-77
2022/02/27 02:50:06;;;;;;;4.95;3.97;;;-2.20;99.90;;;;;;6215884;23;20016;-78
2022/02/27 02:52:32;;;;;;;12.30;3.92;;;-2.20;99.90;;;;;;6191583;23;20042;-79
2022/02/27 02:54:57;;;;;;;5.03;3.72;;;-2.30;99.90;;;;;;6216560;23;20094;-78
2022/02/27 02:57:23;;;;;;;;;;;-2.30;99.90;;;;;;6191353;23;20022;-79
2022/02/27 02:59:50;;;;;;;7.47;4.00;;;-2.30;99.90;;;;;;6215986;23;20354;-78
2022/02/27 03:02:16;;;;;;;11.80;4.70;;;-2.30;99.90;;;;;;6216162;23;20027;-78
2022/02/27 03:04:42;;;;;;;5.85;3.63;;;-2.30;99.90;;;;;;6191055;23;20020;-78
2022/02/27 03:07:07;;;;;;;12.07;4.40;;;-2.30;99.90;;;;;;6215561;23;20099;-78
2022/02/27 03:09:35;;;;;;;11.07;5.07;;;-2.20;99.90;;;;;;6216634;23;20024;-78
2022/02/27 03:12:03;;;;;;;8.52;4.03;;;-2.20;99.90;;;;;;6215989;23;20016;-77
2022/02/27 03:14:28;;;;;;;5.88;4.93;;;-2.20;99.90;;;;;;6215947;23;20024;-78
2022/02/27 03:16:54;;;;;;;7.22;5.18;;;-2.20;99.90;;;;;;6216227;23;20481;-78
2022/02/27 03:19:20;;;;;;;;;;;-2.20;99.90;;;;;;6190125;23;20012;-78
2022/02/27 03:21:45;;;;;;;6.97;4.38;;;-2.10;99.90;;;;;;6190013;23;19983;-78
2022/02/27 03:24:11;;;;;;;;;;;-2.20;99.90;;;;;;6216603;23;20040;-78
2022/02/27 03:26:37;;;;;;;18.10;5.85;;;-2.20;99.90;;;;;;6216166;23;19961;-78
2022/02/27 03:29:02;;;;;;;;;;;-2.30;99.90;;;;;;6191046;23;20431;-78
2022/02/27 03:31:28;;;;;;;7.63;5.07;;;-2.20;99.90;;;;;;6190788;23;19931;-78
2022/02/27 03:33:54;;;;;;;10.23;4.43;;;-2.30;99.90;;;;;;6189831;23;20029;-78
2022/02/27 03:36:20;;;;;;;12.32;5.03;;;-2.30;99.90;;;;;;6215016;23;20094;-78
2022/02/27 03:38:45;;;;;;;;;;;-2.40;99.90;;;;;;6191762;23;20086;-78
2022/02/27 03:41:11;;;;;;;11.88;5.10;;;-2.40;99.90;;;;;;6215838;23;19923;-78
2022/02/27 03:43:37;;;;;;;;;;;-2.40;99.90;;;;;;6216585;23;20024;-78
2022/02/27 03:46:03;;;;;;;5.05;4.35;;;-2.40;99.90;;;;;;6211129;23;19916;-78
2022/02/27 03:48:28;;;;;;;;;;;-2.40;99.90;;;;;;6184848;23;20455;-78
2022/02/27 03:50:54;;;;;;;12.63;5.15;;;-2.40;99.90;;;;;;6214774;23;19920;-78
2022/02/27 03:53:20;;;;;;;;;;;-2.40;99.90;;;;;;6216219;23;20099;-78
2022/02/27 03:55:46;;;;;;;7.20;4.95;;;-2.40;99.90;;;;;;6216311;23;20277;-78
2022/02/27 03:58:11;;;;;;;;;;;-2.40;99.90;;;;;;6190903;23;20099;-78
2022/02/27 04:00:37;;;;;;;22.45;5.35;;;-2.40;99.90;;;;;;6216222;23;19990;-78
2022/02/27 04:03:03;;;;;;;11.10;6.57;;;-2.30;99.90;;;;;;6215339;23;20664;-77
2022/02/27 04:05:28;;;;;;;8.35;5.72;;;-2.30;99.90;;;;;;6190994;23;20099;-78
2022/02/27 04:07:54;;;;;;;9.50;6.00;;;-2.30;99.90;;;;;;6216172;23;20074;-78
2022/02/27 04:10:20;;;;;;;;;;;-2.30;99.90;;;;;;6192567;23;20074;-79
2022/02/27 04:12:46;;;;;;;7.38;5.07;;;-2.20;99.90;;;;;;6217880;23;19920;-78
2022/02/27 04:15:11;;;;;;;;;;;-2.20;99.90;;;;;;6218209;23;20022;-78
2022/02/27 04:17:37;;;;;;;13.55;6.38;;;-2.10;99.90;;;;;;6217562;23;19938;-78
2022/02/27 04:20:04;;;;;;;6.63;5.32;;;-2.10;99.90;;;;;;6191853;23;20013;-78
2022/02/27 04:22:30;;;;;;;11.05;5.95;;;-2.10;99.90;;;;;;6217140;23;20023;-77
2022/02/27 04:24:56;;;;;;;9.32;6.93;;;-2.10;99.90;;;;;;6192788;23;20013;-78
2022/02/27 04:27:22;;;;;;;10.07;5.25;;;-2.10;99.90;;;;;;6217361;23;20043;-78
2022/02/27 04:29:48;;;;;;;;;;;-2.10;99.90;;;;;;6192859;23;20319;-78
2022/02/27 04:32:13;;;;;;;9.80;5.63;;;-2.10;99.90;;;;;;6217072;23;20017;-78
2022/02/27 04:34:39;;;;;;;12.82;6.55;;;-2.10;99.90;;;;;;6217471;23;20055;-79
2022/02/27 04:37:05;;;;;;;;;;;-2.10;99.90;;;;;;6193097;23;20016;-78
2022/02/27 04:39:31;;;;;;;6.45;5.50;;;-2.10;99.90;;;;;;6217202;23;19911;-78
2022/02/27 04:41:56;;;;;;;;;;;-2.20;99.90;;;;;;6218011;23;20020;-78
2022/02/27 04:44:22;;;;;;;6.68;3.78;;;-2.20;99.90;;;;;;6217112;23;19947;-78
2022/02/27 04:46:48;;;;;;;;;;;-2.20;99.90;;;;;;6217933;23;20027;-78
2022/02/27 04:49:13;;;;;;;7.82;5.55;;;-2.30;99.90;;;;;;6215718;23;19986;-78
2022/02/27 04:51:39;;;;;;;;;;;-2.30;99.90;;;;;;6217950;23;20024;-78
2022/02/27 04:54:05;;;;;;;9.43;5.18;;;-2.30;99.90;;;;;;6192876;23;20215;-78
2022/02/27 04:56:30;;;;;;;;;;;-2.40;99.90;;;;;;6217376;23;20463;-78
2022/02/27 04:58:56;;;;;;;15.25;4.95;;;-2.40;99.90;;;;;;6192287;23;19946;-78
2022/02/27 05:01:22;;;;;;;13.50;6.07;;;-2.40;99.90;;;;;;6216993;23;20025;-78
2022/02/27 05:03:47;;;;;;;11.25;5.45;;;-2.40;99.90;;;;;;6216041;23;20020;-78
2022/02/27 05:06:14;;;;;;;10.60;5.45;;;-2.50;99.90;;;;;;6217640;23;20027;-78
2022/02/27 05:08:40;;;;;;;9.88;6.85;;;-2.50;99.90;;;;;;6191853;23;20078;-78
2022/02/27 05:11:06;;;;;;;9.52;5.53;;;-2.50;99.90;;;;;;6217047;23;20020;-78
2022/02/27 05:13:32;;;;;;;11.70;6.30;;;-2.50;99.90;;;;;;6215967;23;20086;-78
2022/02/27 05:15:58;;;;;;;8.70;5.82;;;-2.60;99.90;;;;;;6217391;23;20020;-78
2022/02/27 05:18:23;;;;;;;13.63;6.07;;;-2.60;99.90;;;;;;6190402;23;20396;-78
2022/02/27 05:20:49;;;;;;;;;;;-2.60;99.90;;;;;;6192872;23;20016;-78
2022/02/27 05:23:15;;;;;;;23.00;6.22;;;-2.60;99.90;;;;;;6216748;23;20028;-77
2022/02/27 05:25:40;;;;;;;11.05;5.57;;;-2.70;99.90;;;;;;6192233;23;20116;-77
2022/02/27 05:28:06;;;;;;;;;;;-2.70;99.90;;;;;;6217444;23;20020;-78
2022/02/27 05:30:32;;;;;;;10.02;6.38;;;-2.70;99.90;;;;;;6191286;23;19919;-78
2022/02/27 05:32:58;;;;;;;15.95;6.78;;;-2.70;99.90;;;;;;6191208;23;20023;-77
2022/02/27 05:35:23;;;;;;;;;;;-2.70;99.90;;;;;;6191251;23;20024;-78
2022/02/27 05:37:49;;;;;;;11.57;6.43;;;-2.60;99.90;;;;;;6216557;23;19912;-78
2022/02/27 05:40:15;;;;;;;;;;;-2.70;99.90;;;;;;6192443;23;20070;-78
2022/02/27 05:42:41;;;;;;;10.93;7.60;;;-2.70;99.90;;;;;;6191110;23;19912;-78
2022/02/27 05:45:08;;;;;;;11.55;8.23;;;-2.70;99.90;;;;;;6215893;23;20490;-78
2022/02/27 05:47:35;;;;;;;9.13;6.57;;;-2.70;99.90;;;;;;6215882;23;20024;-78
2022/02/27 05:50:01;;;;;;;18.65;9.23;;;-2.70;99.90;;;;;;6190200;23;20027;-78
2022/02/27 05:52:26;;;;;;;;;;;-2.70;99.90;;;;;;6191292;23;20028;-78
2022/02/27 05:54:52;;;;;;;12.55;7.03;;;-2.70;99.90;;;;;;6216533;23;19917;-78
2022/02/27 05:57:18;;;;;;;;;;;-2.70;99.90;;;;;;6167024;23;20039;-78
2022/02/27 05:59:44;;;;;;;11.57;6.57;;;-2.70;99.90;;;;;;6216113;23;19912;-78
2022/02/27 06:02:09;;;;;;;9.77;6.80;;;-2.70;99.90;;;;;;6216630;23;20019;-79
2022/02/27 06:04:35;;;;;;;;;;;-2.70;99.90;;;;;;6214765;23;20047;-79
2022/02/27 06:07:01;;;;;;;12.52;6.35;;;-2.70;99.90;;;;;;6216652;23;20288;-78
2022/02/27 06:09:27;;;;;;;;;;;-2.70;99.90;;;;;;6191314;23;20079;-79
2022/02/27 06:11:52;;;;;;;9.30;6.25;;;-2.70;99.90;;;;;;6216647;23;19915;-79
2022/02/27 06:14:18;;;;;;;;;;;-2.70;99.90;;;;;;6191883;23;20016;-80
2022/02/27 06:16:44;;;;;;;13.38;5.30;;;-2.80;99.90;;;;;;6216098;23;19982;-80
2022/02/27 06:19:09;;;;;;;11.20;5.97;;;-2.70;99.90;;;;;;6214842;23;20035;-80
2022/02/27 06:21:35;;;;;;;;;;;-2.70;99.90;;;;;;6215840;23;20020;-78
2022/02/27 06:24:00;;;;;;;10.30;6.15;;;-2.70;99.90;;;;;;6215393;23;20211;-78
2022/02/27 06:26:26;;;;;;;20.67;6.82;;;-2.70;99.90;;;;;;6214868;23;20203;-79
2022/02/27 06:28:52;;;;;;;;;;;-2.40;99.90;;;;;;6167031;23;20027;-78
2022/02/27 06:31:17;;;;;;;10.23;5.68;;;-2.70;99.90;;;;;;6191230;23;19920;-78
2022/02/27 06:33:44;;;;;;;;;;;-2.70;99.90;;;;;;6215826;23;20151;-78
2022/02/27 06:36:10;;;;;;;6.57;4.88;;;-2.70;99.90;;;;;;6216359;23;20338;-79
2022/02/27 06:38:35;;;;;;;;;;;-2.70;99.90;;;;;;6216626;23;20023;-79
2022/02/27 06:41:02;;;;;;;14.43;5.78;;;-2.70;99.90;;;;;;6216662;23;19921;-79
2022/02/27 06:43:31;;;;;;;10.35;5.88;;;-2.70;99.90;;;;;;6215564;23;20510;-78
2022/02/27 06:45:57;;;;;;;12.95;7.25;;;-2.70;99.90;;;;;;6216691;23;20035;-79
2022/02/27 06:48:23;;;;;;;;;;;-2.70;99.90;;;;;;6215556;23;20023;-78
2022/02/27 06:50:48;;;;;;;10.20;6.00;;;-2.60;99.90;;;;;;6216351;23;19915;-78
2022/02/27 06:53:14;;;;;;;;;;;-2.60;99.90;;;;;;6192217;23;20027;-78
2022/02/27 06:55:40;;;;;;;14.18;6.93;;;-2.40;99.90;;;;;;6215702;23;19998;-79
2022/02/27 06:58:05;;;;;;;;;;;-2.40;99.90;;;;;;6191509;23;20407;-79
2022/02/27 07:00:31;;;;;;;8.57;5.68;;;-2.40;99.90;;;;;;6215814;23;19982;-79
2022/02/27 07:02:57;;;;;;;;;;;-2.40;99.90;;;;;;6190955;23;20081;-79
2022/02/27 07:05:23;;;;;;;10.48;5.65;;;-2.30;99.90;;;;;;6215563;23;20239;-80
2022/02/27 07:07:49;;;;;;;;;;;-2.30;99.90;;;;;;6216150;23;20070;-80
2022/02/27 07:10:16;;;;;;;7.90;5.90;;;-2.20;99.90;;;;;;6190729;23;19911;-79
2022/02/27 07:12:45;;;;;;;14.65;6.88;;;-2.10;99.90;;;;;;6215670;23;20023;-78
2022/02/27 07:15:11;;;;;;;9.30;6.20;;;-2.00;99.90;;;;;;6215987;23;20494;-79
2022/02/27 07:17:37;;;;;;;13.30;6.90;;;-1.80;99.90;;;;;;6165710;23;20094;-79
2022/02/27 07:20:04;;;;;;;8.10;5.47;;;-1.70;99.90;;;;;;6214921;23;20340;-78
2022/02/27 07:22:30;;;;;;;8.77;6.40;;;-1.60;99.90;;;;;;6190949;23;20096;-80
2022/02/27 07:24:57;;;;;;;12.02;6.72;;;-1.60;99.90;;;;;;6216140;23;20016;-80
2022/02/27 07:27:23;;;;;;;11.45;7.07;;;-1.50;99.90;;;;;;6216136;23;20039;-80
2022/02/27 07:29:49;;;;;;;15.43;6.60;;;-1.40;99.90;;;;;;6215622;23;20367;-78
2022/02/27 07:32:15;;;;;;;11.07;6.30;;;-1.30;99.90;;;;;;6191177;23;20031;-79
2022/02/27 07:34:41;;;;;;;10.80;6.13;;;-1.20;99.90;;;;;;6164699;23;20302;-80
2022/02/27 07:37:07;;;;;;;11.43;6.35;;;-1.10;99.90;;;;;;6216763;23;20099;-79
2022/02/27 07:39:33;;;;;;;16.90;6.85;;;-1.00;99.90;;;;;;6190954;23;20470;-80
2022/02/27 07:41:59;;;;;;;10.85;6.95;;;-1.00;99.90;;;;;;6216575;23;20026;-81
2022/02/27 07:44:24;;;;;;;;;;;-0.80;99.90;;;;;;6192696;23;20082;-77
2022/02/27 07:46:50;;;;;;;9.20;4.93;;;-0.70;99.90;;;;;;6218347;23;19911;-80
2022/02/27 07:49:16;;;;;;;18.95;7.00;;;-0.60;99.90;;;;;;6217340;23;20023;-79
2022/02/27 07:51:42;;;;;;;;;;;-0.60;99.90;;;;;;6218524;23;20035;-78
2022/02/27 07:54:08;;;;;;;7.05;5.03;;;-0.30;99.90;;;;;;6218586;23;20006;-78
2022/02/27 07:56:34;;;;;;;11.07;6.05;;;-0.40;99.90;;;;;;6217672;23;20336;-82
2022/02/27 07:59:10;;;;;;;10.45;6.03;;;-0.30;99.90;;;;;;6221460;23;20066;-83
2022/02/27 08:01:42;;;;;;;7.60;5.22;;;-0.40;99.90;;;;;;6221907;23;20098;-85
2022/02/27 08:04:15;;;;;;;;;;;-0.10;99.90;;;;;;6193953;23;20016;-84
2022/02/27 08:06:41;;;;;;;13.85;6.03;;;0.10;99.90;;;;;;6193330;23;19912;-81
2022/02/27 08:09:07;;;;;;;8.55;6.13;;;1.00;99.90;;;;;;6192601;23;20031;-81
2022/02/27 08:11:39;;;;;;;7.68;5.22;;;1.40;99.90;;;;;;6193868;23;20027;-82
2022/02/27 08:14:12;;;;;;;6.97;5.68;;;0.60;99.90;;;;;;6215571;22;20039;-85
2022/02/27 08:16:38;;;;;;;11.43;5.88;;;0.20;99.90;;;;;;6204386;23;20016;-79
2022/02/27 08:19:04;;;;;;;10.85;6.05;;;1.00;99.90;;;;;;6190174;23;20035;-80
2022/02/27 08:21:30;;;;;;;8.23;5.38;;;0.90;99.90;;;;;;6214874;23;20078;-79
2022/02/27 08:23:55;;;;;;;10.93;6.20;;;0.70;99.90;;;;;;6168175;23;20027;-82
2022/02/27 08:26:21;;;;;;;13.10;5.60;;;0.80;99.90;;;;;;6218009;23;20470;-82
2022/02/27 08:28:47;;;;;;;12.50;6.22;;;0.90;99.90;;;;;;6217666;23;20391;-81
2022/02/27 08:31:13;;;;;;;10.65;5.25;;;1.00;99.90;;;;;;6219598;23;20016;-81
2022/02/27 08:33:38;;;;;;;9.93;6.20;;;1.90;99.90;;;;;;6166884;23;20026;-81
2022/02/27 08:36:04;;;;;;;10.82;5.40;;;1.40;99.90;;;;;;6192990;23;20012;-82
2022/02/27 08:38:30;;;;;;;13.70;6.47;;;1.30;99.90;;;;;;6217668;23;20040;-82
2022/02/27 08:40:56;;;;;;;;;;;1.90;99.90;;;;;;6193768;23;20020;-81
2022/02/27 08:43:22;;;;;;;16.58;5.55;;;1.50;99.90;;;;;;6212749;23;19916;-81
2022/02/27 08:45:48;;;;;;;7.45;4.93;;;1.60;99.90;;;;;;6167577;23;20028;-81
2022/02/27 08:48:15;;;;;;;10.90;5.18;;;1.70;99.90;;;;;;6216891;23;20020;-81
2022/02/27 08:50:41;;;;;;;11.88;6.07;;;1.80;99.90;;;;;;6217511;23;20020;-81
2022/02/27 08:53:07;;;;;;;12.23;6.20;;;1.90;99.90;;;;;;6217398;23;20070;-81
2022/02/27 08:55:32;;;;;;;11.82;5.65;;;2.00;99.90;;;;;;6192319;23;20023;-80
2022/02/27 08:57:58;;;;;;;10.93;5.50;;;2.10;99.90;;;;;;6217305;23;20336;-81
2022/02/27 09:00:24;;;;;;;;;;;2.20;99.90;;;;;;6218442;23;20125;-80
2022/02/27 09:02:50;;;;;;;9.85;4.65;;;2.30;99.90;;;;;;6216337;23;20311;-80
2022/02/27 09:05:16;;;;;;;9.02;5.45;;;2.90;99.90;;;;;;6191427;23;20020;-80
2022/02/27 09:07:42;;;;;;;5.80;4.25;;;2.50;99.90;;;;;;6211356;23;20353;-80
2022/02/27 09:10:08;;;;;;;;;;;2.50;99.90;;;;;;6202174;23;20052;-81
2022/02/27 09:12:35;;;;;;;7.17;5.00;;;2.60;99.90;;;;;;6187164;23;19974;-81
2022/02/27 09:15:01;;;;;;;8.18;4.07;;;3.40;99.90;;;;;;6187292;23;20062;-80
2022/02/27 09:17:26;;;;;;;;;;;3.00;99.90;;;;;;6212369;23;20017;-80
2022/02/27 09:19:52;;;;;;;6.85;4.47;;;3.80;99.90;;;;;;6189298;23;19936;-80
2022/02/27 09:22:20;;;;;;;7.63;4.10;;;3.00;99.90;;;;;;6188699;23;20095;-84
2022/02/27 09:24:46;;;;;;;11.57;4.63;;;3.20;99.90;;;;;;6167243;23;20762;-80
2022/02/27 09:27:12;;;;;;;10.77;3.97;;;3.30;99.90;;;;;;6191460;23;20024;-85
2022/02/27 09:29:38;;;;;;;7.18;4.50;;;3.40;99.90;;;;;;6185488;23;20028;-82
2022/02/27 09:32:04;;;;;;;9.57;4.35;;;3.40;99.90;;;;;;6166066;23;20020;-80
2022/02/27 09:34:30;;;;;;;;;;;3.50;99.90;;;;;;6190470;23;20024;-81
2022/02/27 09:36:57;;;;;;;11.88;4.40;;;4.10;99.90;;;;;;6191214;23;19911;-82
2022/02/27 09:39:22;;;;;;;10.05;4.90;;;3.60;99.90;;;;;;6186456;23;20027;-79
2022/02/27 09:41:48;;;;;;;8.23;4.15;;;4.00;99.90;;;;;;6161778;23;20021;-83
2022/02/27 09:44:14;;;;;;;4.47;3.55;;;5.00;99.90;;;;;;6190760;23;20031;-82
2022/02/27 09:46:41;;;;;;;6.70;4.57;;;4.30;99.90;;;;;;6189577;23;20416;-80
2022/02/27 09:49:07;;;;;;;9.35;4.38;;;4.10;99.90;;;;;;6167169;23;20026;-82
2022/02/27 09:51:33;;;;;;;8.45;3.88;;;4.00;99.90;;;;;;6216482;23;20024;-83
2022/02/27 09:54:00;;;;;;;9.48;4.20;;;4.60;99.90;;;;;;6190633;23;20016;-81
2022/02/27 09:56:25;;;;;;;;;;;4.10;99.90;;;;;;6217242;23;20068;-83
2022/02/27 09:58:51;;;;;;;8.23;4.13;;;4.80;99.90;;;;;;6215771;23;19911;-80
2022/02/27 10:01:18;;;;;;;6.85;4.38;;;5.70;99.90;;;;;;6244757;23;20019;-78
2022/02/27 10:03:44;;;;;;;8.02;3.78;;;4.80;99.90;;;;;;6191012;23;20078;-80
2022/02/27 10:06:12;;;;;;;;;;;4.30;99.90;;;;;;6193155;23;20441;-79
2022/02/27 10:08:38;;;;;;;6.78;3.85;;;4.30;99.90;;;;;;6215080;23;19942;-80
2022/02/27 10:11:05;;;;;;;5.53;4.13;;;4.40;99.90;;;;;;6191997;23;20443;-84
2022/02/27 10:13:42;;;;;;;12.40;4.50;;;4.40;99.90;;;;;;6190760;23;20008;-79
2022/02/27 10:16:26;;;;;;;7.00;3.75;;;4.50;99.90;;;;;;6189997;23;20514;-80
2022/02/27 10:18:54;;;;;;;7.72;3.78;;;4.60;99.90;;;;;;6163974;23;20658;-79
2022/02/27 10:21:25;;;;;;;5.22;3.72;;;4.70;99.90;;;;;;6190319;23;20151;-81
2022/02/27 10:23:56;;;;;;;9.77;4.25;;;4.70;99.90;;;;;;6189172;23;20016;-80
2022/02/27 10:26:23;;;;;;;7.90;4.13;;;4.80;99.90;;;;;;6189138;23;20419;-81
2022/02/27 10:29:13;;;;;;;6.05;4.13;;;4.80;99.90;;;;;;6162835;23;20024;-79
2022/02/27 10:31:53;;;;;;;9.43;4.43;;;4.90;99.90;;;;;;6198289;23;20031;-77
2022/02/27 10:34:20;;;;;;;5.72;3.92;;;5.00;99.90;;;;;;6186840;23;20089;-79
2022/02/27 10:36:51;;;;;;;7.32;4.72;;;5.10;99.90;;;;;;6188130;23;20724;-84
2022/02/27 10:39:30;;;;;;;4.50;3.03;;;5.10;99.90;;;;;;6188278;23;20023;-79
2022/02/27 10:42:24;;;;;;;6.60;3.33;;;5.20;99.90;;;;;;6190364;23;20296;-84
2022/02/27 10:44:52;;;;;;;6.93;4.00;;;5.30;99.90;;;;;;6201836;23;20020;-82
2022/02/27 10:47:26;;;;;;;8.02;4.20;;;5.40;99.90;;;;;;6190346;23;20032;-84
2022/02/27 10:49:54;;;;;;;6.97;3.78;;;5.90;99.90;;;;;;6190284;23;20400;-79
2022/02/27 10:52:22;;;;;;;4.72;3.42;;;5.50;99.90;;;;;;6239767;23;20459;-80
2022/02/27 10:55:08;;;;;;;8.48;3.35;;;5.60;99.90;;;;;;6213900;23;20070;-79
2022/02/27 10:57:44;;;;;;;7.25;3.88;;;5.60;99.90;;;;;;6188790;23;20020;-79
2022/02/27 11:00:14;;;;;;;6.80;4.10;;;5.50;99.90;;;;;;6217175;23;20475;-83
2022/02/27 11:02:45;;;;;;;5.25;3.83;;;5.90;99.90;;;;;;6216926;23;20403;-82
2022/02/27 11:05:13;;;;;;;6.25;3.50;;;5.60;99.90;;;;;;6190499;23;20023;-80
2022/02/27 11:07:41;;;;;;;10.30;3.40;;;6.20;99.90;;;;;;6191124;23;20095;-79
2022/02/27 11:10:10;;;;;;;7.53;4.25;;;5.80;99.90;;;;;;6188367;23;20034;-80
2022/02/27 11:12:37;;;;;;;6.53;4.07;;;5.90;99.90;;;;;;6215006;23;20684;-79
2022/02/27 11:15:08;;;;;;;6.55;3.10;;;6.00;99.90;;;;;;6189693;23;20020;-79
2022/02/27 11:17:34;;;;;;;9.95;3.70;;;6.00;99.90;;;;;;6193151;23;20042;-79
2022/02/27 11:20:02;;;;;;;6.25;2.80;;;6.00;99.90;;;;;;6196794;23;20009;-81
2022/02/27 11:22:28;;;;;;;4.28;3.50;;;6.40;99.90;;;;;;6169913;23;20031;-81
2022/02/27 11:24:58;;;;;;;5.20;3.20;;;6.00;99.90;;;;;;6215545;23;20012;-81
2022/02/27 11:27:29;;;;;;;6.38;3.97;;;6.10;99.90;;;;;;6192048;23;20093;-79
2022/02/27 11:29:57;;;;;;;7.50;3.72;;;6.30;99.90;;;;;;6215083;23;20474;-83
2022/02/27 11:32:24;;;;;;;8.63;3.38;;;6.20;99.90;;;;;;6190980;23;20070;-83
2022/02/27 11:34:50;;;;;;;7.30;3.40;;;6.30;99.90;;;;;;6188740;23;20055;-85
2022/02/27 11:37:37;;;;;;;8.32;3.75;;;6.30;99.90;;;;;;6191231;23;20016;-86
2022/02/27 11:40:28;;;;;;;;;;;5.60;99.90;;;;;;6186362;23;20462;-84
2022/02/27 11:42:56;;;;;;;9.77;3.47;;;6.30;99.90;;;;;;6215391;23;19927;-86
2022/02/27 11:45:34;;;;;;;7.50;3.53;;;6.60;99.90;;;;;;6190502;23;20185;-84
2022/02/27 11:48:01;;;;;;;8.30;3.83;;;6.50;99.90;;;;;;6177095;23;20043;-82
2022/02/27 11:50:30;;;;;;;5.65;3.70;;;6.50;99.90;;;;;;6189862;23;20020;-82
2022/02/27 11:52:56;;;;;;;6.80;3.65;;;6.60;99.90;;;;;;6214846;23;20012;-85
2022/02/27 11:55:42;;;;;;;6.53;3.53;;;6.90;99.90;;;;;;6191194;23;20027;-81
2022/02/27 11:58:27;;;;;;;5.53;3.70;;;6.70;99.90;;;;;;6219776;23;20447;-87
2022/02/27 12:00:53;;;;;;;4.80;3.17;;;6.70;99.90;;;;;;6189187;23;20017;-84
2022/02/27 12:03:40;;;;;;;9.00;4.07;;;6.80;99.90;;;;;;6190376;23;20128;-78
2022/02/27 12:06:08;;;;;;;4.38;2.80;;;6.80;99.90;;;;;;6215247;23;20031;-79
2022/02/27 12:08:45;;;;;;;4.95;3.10;;;6.90;99.90;;;;;;6216581;23;20024;-79
2022/02/27 12:11:30;;;;;;;7.07;3.47;;;7.00;99.90;;;;;;6216963;23;20020;-80
2022/02/27 12:14:00;;;;;;;8.32;3.10;;;7.10;99.90;;;;;;6216648;23;20095;-80
2022/02/27 12:16:43;;;;;;;9.00;3.47;;;7.10;99.90;;;;;;6215953;23;20043;-79
2022/02/27 12:19:27;;;;;;;7.32;3.95;;;7.20;99.90;;;;;;6215141;23;20404;-81
2022/02/27 12:21:57;;;;;;;4.47;3.38;;;7.20;99.90;;;;;;6190263;23;20270;-78
2022/02/27 12:24:26;;;;;;;6.93;3.65;;;7.20;99.90;;;;;;6216916;23;20024;-79
2022/02/27 12:26:58;;;;;;;6.60;3.90;;;7.30;99.90;;;;;;6191157;23;20363;-79
2022/02/27 12:29:36;;;;;;;8.40;4.22;;;7.30;99.90;;;;;;6215961;23;20056;-78
2022/02/27 12:32:08;;;;;;;4.95;3.28;;;7.40;99.90;;;;;;6218495;23;20387;-79
2022/02/27 12:34:35;;;;;;;7.03;3.78;;;7.50;99.90;;;;;;6216945;23;20116;-79
2022/02/27 12:37:02;;;;;;;9.77;3.65;;;7.50;99.90;;;;;;6193013;23;20377;-77
2022/02/27 12:39:34;;;;;;;5.88;3.75;;;7.50;99.90;;;;;;6218490;23;20020;-81
2022/02/27 12:42:00;;;;;;;7.65;3.50;;;7.50;99.90;;;;;;6192618;23;20051;-78
2022/02/27 12:44:32;;;;;;;6.70;3.90;;;7.60;99.90;;;;;;6217473;23;20044;-79
2022/02/27 12:47:00;;;;;;;6.95;3.47;;;7.70;99.90;;;;;;6217035;23;20024;-79
2022/02/27 12:52:28;;;;;;;6.43;3.22;;;7.80;99.90;;;;;;6243547;23;20024;-80
2022/02/27 12:54:56;;;;;;;8.95;3.50;;;7.70;99.90;;;;;;6244828;23;20090;-79
2022/02/27 12:57:23;;;;;;;7.57;3.20;;;7.80;99.90;;;;;;6218286;23;20020;-81
2022/02/27 12:59:50;;;;;;;8.05;3.40;;;7.80;99.90;;;;;;6217463;23;20095;-80
2022/02/27 13:02:25;;;;;;;5.75;3.35;;;7.80;99.90;;;;;;6217928;23;20008;-79
2022/02/27 13:04:56;;;;;;;6.00;2.90;;;7.80;99.90;;;;;;6192064;23;20103;-78
2022/02/27 13:07:22;;;;;;;7.20;3.47;;;7.90;99.90;;;;;;6217948;23;20020;-79